createdAt,value
2023-09-08T00:01:58.462Z,14.87
2023-09-08T00:32:01.368Z,14.73
2023-09-08T01:02:06.012Z,14.50
2023-09-08T01:32:09.006Z,14.35
2023-09-08T02:02:13.140Z,14.12
2023-09-08T02:32:16.364Z,13.87
2023-09-08T03:02:19.700Z,13.81
2023-09-08T03:32:23.547Z,13.60
2023-09-08T04:02:28.372Z,13.47
2023-09-08T04:32:31.746Z,13.30
2023-09-08T05:02:36.755Z,13.35
2023-09-08T05:32:40.159Z,13.92
2023-09-08T06:02:43.589Z,14.61
2023-09-08T06:32:47.502Z,15.48
2023-09-08T07:02:50.914Z,16.52
2023-09-08T07:32:54.965Z,18.19
2023-09-08T08:02:58.204Z,19.95
2023-09-08T08:33:02.279Z,21.64
2023-09-08T09:03:14.768Z,23.49
2023-09-08T09:33:19.212Z,24.90
2023-09-08T10:03:23.585Z,25.70
2023-09-08T10:33:26.633Z,26.93
2023-09-08T11:03:30.680Z,27.51
2023-09-08T11:33:33.896Z,28.31
2023-09-08T12:03:38.835Z,28.50
2023-09-08T12:33:41.797Z,28.38
2023-09-08T13:03:45.828Z,27.94
2023-09-08T13:33:48.717Z,27.56
2023-09-08T14:33:58.737Z,26.73
2023-09-08T15:04:02.760Z,26.71
2023-09-08T15:34:06.004Z,29.24
2023-09-08T16:04:09.347Z,26.29
2023-09-08T16:34:12.855Z,24.31
2023-09-08T17:04:17.223Z,22.87
2023-09-08T17:34:21.093Z,21.49
2023-09-08T18:04:25.250Z,20.61
2023-09-08T18:34:28.595Z,19.56
2023-09-08T19:04:31.913Z,18.88
2023-09-08T19:34:34.803Z,18.15
2023-09-08T20:04:39.436Z,17.41
2023-09-08T20:34:42.396Z,16.90
2023-09-08T21:04:47.411Z,16.32
2023-09-08T21:34:50.297Z,16.01
2023-09-08T22:04:53.812Z,15.80
2023-09-08T22:34:56.899Z,15.48
2023-09-08T23:05:01.499Z,15.28
2023-09-08T23:35:04.571Z,15.14
